Time;durP1;ratioP1;P1;durP2;ratioP2;P2;SDS_P1;SDS_P2;PMS_P1;PMS_P2;Temp;Humidity;BMP_temperature;BMP_pressure;BME280_temperature;BME280_humidity;BME280_pressure;Samples;Min_cycle;Max_cycle;Signal;HPM_P1;HPM_P2
2021/12/27 00:01:54;;;;;;;66.80;27.20;;;;;;;-9.88;68.76;98455.27;105344;1320;22591;-74
2021/12/27 00:04:21;;;;;;;73.70;24.90;;;;;;;-9.88;68.62;98455.79;105339;1322;22581;-74
2021/12/27 00:06:48;;;;;;;64.40;23.00;;;;;;;-9.83;68.72;98450.44;105312;1322;22592;-74
2021/12/27 00:09:15;;;;;;;62.20;20.60;;;;;;;-9.82;68.40;98445.23;105304;1319;22589;-76
2021/12/27 00:11:43;;;;;;;59.40;21.10;;;;;;;-9.79;68.56;98440.72;105350;1322;22641;-73
2021/12/27 00:14:09;;;;;;;70.40;24.20;;;;;;;-9.79;68.25;98440.72;105355;1321;22578;-76
2021/12/27 00:16:36;;;;;;;74.20;22.70;;;;;;;-9.80;68.56;98438.02;105303;1321;22630;-76
2021/12/27 00:19:03;;;;;;;72.50;23.90;;;;;;;-9.79;68.46;98434.14;105276;1322;22731;-74
2021/12/27 00:21:30;;;;;;;58.00;20.00;;;;;;;-9.77;68.42;98431.65;105319;1322;22606;-75
2021/12/27 00:23:57;;;;;;;64.00;22.60;;;;;;;-9.77;68.38;98426.43;105364;1321;22613;-74
2021/12/27 00:26:24;;;;;;;66.80;22.20;;;;;;;-9.77;68.28;98423.56;105325;1322;22732;-74
2021/12/27 00:28:51;;;;;;;62.60;21.00;;;;;;;-9.75;68.41;98419.38;105310;1319;23293;-74
2021/12/27 00:31:18;;;;;;;72.20;22.60;;;;;;;-9.73;68.28;98420.40;105318;1321;22730;-75
2021/12/27 00:33:45;;;;;;;70.00;23.10;;;;;;;-9.73;68.13;98417.54;105320;1321;25278;-74
2021/12/27 00:36:12;;;;;;;60.90;22.50;;;;;;;-9.71;68.33;98418.74;105249;1321;22623;-75
2021/12/27 00:38:40;;;;;;;65.30;23.00;;;;;;;-9.69;68.26;98415.23;105343;1322;22589;-74
2021/12/27 00:41:07;;;;;;;59.00;21.10;;;;;;;-9.66;68.34;98417.45;105548;1321;22717;-74
2021/12/27 00:43:34;;;;;;;48.10;17.10;;;;;;;-9.63;68.53;98417.48;105315;1322;22643;-75
2021/12/27 00:46:00;;;;;;;81.10;24.40;;;;;;;-9.61;68.22;98418.69;105317;1320;25546;-74
2021/12/27 00:48:27;;;;;;;72.90;23.90;;;;;;;-9.60;68.18;98422.91;105310;1321;22899;-74
2021/12/27 00:50:54;;;;;;;73.80;24.90;;;;;;;-9.59;68.18;98420.92;105373;1322;23106;-74
2021/12/27 00:53:21;;;;;;;50.60;19.20;;;;;;;-9.59;68.49;98417.70;105340;1320;24516;-74
2021/12/27 00:55:48;;;;;;;77.00;26.60;;;;;;;-9.59;68.55;98416.36;105301;1321;25305;-74
2021/12/27 00:58:15;;;;;;;62.90;23.20;;;;;;;-9.58;68.59;98416.36;105342;1322;22599;-75
2021/12/27 01:00:42;;;;;;;80.40;24.10;;;;;;;-9.57;68.45;98418.90;105333;1320;22626;-75
2021/12/27 01:03:09;;;;;;;70.10;25.00;;;;;;;-9.54;68.48;98421.80;105351;1321;22567;-74
2021/12/27 01:05:37;;;;;;;68.40;22.50;;;;;;;-9.52;68.70;98424.35;105334;1322;22667;-75
2021/12/27 01:08:05;;;;;;;60.10;22.30;;;;;;;-9.50;68.79;98432.48;105310;1319;22599;-76
2021/12/27 01:10:57;;;;;;;70.40;22.70;;;;;;;-9.46;68.73;98432.67;105349;1321;22537;-74
2021/12/27 01:13:36;;;;;;;66.60;25.10;;;;;;;-9.45;68.89;98435.38;105320;1319;22581;-74
2021/12/27 01:16:12;;;;;;;;;;;;;;;-9.42;68.78;98438.95;105376;1318;22569;-76
2021/12/27 01:18:46;;;;;;;61.90;22.70;;;;;;;-9.40;69.13;98437.80;105348;1321;22655;-75
2021/12/27 01:21:17;;;;;;;67.90;23.00;;;;;;;-9.38;68.99;98437.98;105353;1321;22717;-74
2021/12/27 01:23:44;;;;;;;70.30;22.20;;;;;;;-9.36;69.15;98442.39;105332;1322;22588;-74
2021/12/27 01:26:12;;;;;;;68.30;25.00;;;;;;;-9.34;69.05;98445.95;105325;1320;22598;-74
2021/12/27 01:28:41;;;;;;;63.40;22.80;;;;;;;-9.32;69.30;98451.04;105389;1321;22709;-74
2021/12/27 01:31:08;;;;;;;73.60;24.50;;;;;;;-9.30;69.31;98448.69;105276;1316;25575;-73
2021/12/27 01:33:35;;;;;;;72.60;23.00;;;;;;;-9.30;69.00;98447.00;105318;1322;22585;-73
2021/12/27 01:36:04;;;;;;;61.10;21.60;;;;;;;-9.29;69.13;98444.48;105325;1320;22656;-76
2021/12/27 01:38:35;;;;;;;58.20;19.90;;;;;;;-9.25;69.30;98442.00;105345;1322;24315;-73
2021/12/27 01:41:04;;;;;;;53.60;18.90;;;;;;;-9.25;69.17;98439.98;105354;1321;22605;-74
2021/12/27 01:43:33;;;;;;;50.60;19.80;;;;;;;-9.24;69.33;98442.35;105364;1321;22604;-74
2021/12/27 01:46:07;;;;;;;50.80;18.30;;;;;;;-9.26;69.41;98437.77;105343;1319;22584;-73
2021/12/27 01:48:38;;;;;;;56.60;20.20;;;;;;;-9.29;69.36;98432.84;105355;1321;22638;-74
2021/12/27 01:51:11;;;;;;;76.30;26.00;;;;;;;-9.32;69.34;98429.80;105324;1319;22588;-74
2021/12/27 01:53:39;;;;;;;85.30;26.60;;;;;;;-9.36;69.73;98425.52;105407;1321;24450;-74
2021/12/27 01:56:08;;;;;;;87.50;30.60;;;;;;;-9.36;69.93;98427.20;105339;1321;22727;-73
2021/12/27 01:58:36;;;;;;;89.00;29.00;;;;;;;-9.38;69.72;98422.98;105333;1322;22593;-74
2021/12/27 02:01:05;;;;;;;72.50;24.00;;;;;;;-9.39;69.91;98420.45;105735;1321;22563;-74
2021/12/27 02:03:32;;;;;;;59.60;21.50;;;;;;;-9.39;70.15;98417.40;105322;1319;22589;-75
2021/12/27 02:06:00;;;;;;;66.10;24.30;;;;;;;-9.38;70.13;98418.41;105323;1321;22660;-74
2021/12/27 02:08:28;;;;;;;60.00;22.70;;;;;;;-9.39;70.26;98419.59;105362;1321;22942;-74
2021/12/27 02:10:55;;;;;;;75.30;24.60;;;;;;;-9.39;70.09;98420.27;105337;1321;23404;-74
2021/12/27 02:13:23;;;;;;;66.20;23.20;;;;;;;-9.40;70.32;98418.25;105320;1322;22606;-76
2021/12/27 02:15:50;;;;;;;71.60;24.70;;;;;;;-9.41;70.41;98418.58;105299;1320;22737;-74
2021/12/27 02:18:17;;;;;;;58.90;21.20;;;;;;;-9.40;70.64;98417.73;105350;1322;22641;-74
2021/12/27 02:20:45;;;;;;;56.40;20.00;;;;;;;-9.38;70.74;98419.26;105369;1322;23169;-74
2021/12/27 02:23:16;;;;;;;59.90;20.30;;;;;;;-9.37;70.73;98416.58;105335;1321;22580;-74
2021/12/27 02:25:46;;;;;;;52.40;19.50;;;;;;;-9.35;70.78;98413.39;105325;1322;22584;-75
2021/12/27 02:28:14;;;;;;;64.90;22.60;;;;;;;-9.36;70.73;98407.48;105362;1322;22696;-76
2021/12/27 02:30:43;;;;;;;53.60;21.50;;;;;;;-9.36;71.04;98411.52;105337;1321;22592;-74
2021/12/27 02:33:11;;;;;;;49.00;20.20;;;;;;;-9.36;70.94;98414.73;105757;1320;23397;-76
2021/12/27 02:35:45;;;;;;;55.10;20.60;;;;;;;-9.34;71.20;98415.77;105738;1322;22661;-75
2021/12/27 02:38:26;;;;;;;55.50;20.90;;;;;;;-9.33;71.27;98410.55;105337;1322;22719;-78
2021/12/27 02:40:53;;;;;;;59.90;23.20;;;;;;;-9.32;71.24;98403.32;105334;1316;24260;-77
2021/12/27 02:43:25;;;;;;;64.00;22.50;;;;;;;-9.31;71.07;98400.29;105287;1319;22633;-78
2021/12/27 02:45:58;;;;;;;71.70;25.40;;;;;;;-9.32;71.55;98397.75;105351;1322;25395;-76
2021/12/27 02:48:28;;;;;;;77.10;25.40;;;;;;;-9.33;71.38;98397.06;105348;1322;24266;-75
2021/12/27 02:50:57;;;;;;;77.50;27.50;;;;;;;-9.33;71.57;98391.33;105343;1322;24270;-75
2021/12/27 02:53:26;;;;;;;69.80;28.40;;;;;;;-9.35;71.24;98388.44;105308;1319;22596;-76
2021/12/27 02:55:55;;;;;;;73.70;27.50;;;;;;;-9.36;71.42;98387.57;105346;1319;22597;-75
2021/12/27 02:58:23;;;;;;;61.50;23.40;;;;;;;-9.38;71.53;98392.78;105236;1322;22671;-75
2021/12/27 03:00:51;;;;;;;65.00;24.50;;;;;;;-9.38;71.44;98391.95;105333;1322;26569;-75
2021/12/27 03:03:19;;;;;;;60.30;24.60;;;;;;;-9.38;71.45;98392.45;105329;1321;22606;-75
2021/12/27 03:05:47;;;;;;;67.50;24.90;;;;;;;-9.40;71.49;98391.09;105313;1322;24351;-75
2021/12/27 03:08:15;;;;;;;75.20;29.40;;;;;;;-9.41;71.66;98393.79;105393;1321;22589;-75
2021/12/27 03:10:50;;;;;;;84.90;31.20;;;;;;;-9.40;71.79;98390.42;105340;1322;22589;-75
2021/12/27 03:13:25;;;;;;;77.90;30.80;;;;;;;-9.40;71.70;98387.73;105336;1321;24440;-76
2021/12/27 03:16:13;;;;;;;79.50;31.10;;;;;;;-9.40;71.84;98386.71;105341;1321;22641;-75
2021/12/27 03:18:43;;;;;;;76.80;31.30;;;;;;;-9.42;71.76;98384.34;105352;1322;22788;-75
2021/12/27 03:21:10;;;;;;;70.50;25.30;;;;;;;-9.42;71.43;98380.45;105371;1322;22636;-75
2021/12/27 03:23:40;;;;;;;76.00;29.70;;;;;;;-9.46;71.59;98379.89;105320;1320;22721;-75
2021/12/27 03:26:08;;;;;;;437.20;119.90;;;;;;;-9.52;71.60;98384.73;105318;1321;22683;-75
2021/12/27 03:28:37;;;;;;;316.50;87.00;;;;;;;-9.56;71.90;98385.19;105405;1320;25277;-76
2021/12/27 03:31:06;;;;;;;153.40;46.80;;;;;;;-9.58;71.93;98385.84;105324;1319;22635;-75
2021/12/27 03:33:33;;;;;;;135.80;41.00;;;;;;;-9.59;71.78;98386.34;105500;1321;25432;-77
2021/12/27 03:38:36;;;;;;;318.10;89.10;;;;;;;-9.60;71.80;98389.55;105338;1322;22597;-76
2021/12/27 03:41:06;;;;;;;179.90;54.70;;;;;;;-9.59;71.74;98384.17;105282;1321;22673;-76
2021/12/27 03:43:33;;;;;;;323.70;89.40;;;;;;;-9.58;71.93;98384.84;105303;1322;22585;-76
2021/12/27 03:46:00;;;;;;;273.70;75.20;;;;;;;-9.59;71.98;98384.84;105316;1321;24314;-76
2021/12/27 03:48:28;;;;;;;275.80;77.10;;;;;;;-9.61;72.12;98385.14;105339;1322;22601;-76
2021/12/27 03:50:55;;;;;;;154.90;46.20;;;;;;;-9.62;71.94;98384.80;105318;1321;23499;-77
2021/12/27 03:53:23;;;;;;;82.20;30.50;;;;;;;-9.60;71.80;98383.98;105325;1322;22591;-75
2021/12/27 03:55:50;;;;;;;67.30;23.60;;;;;;;-9.58;71.94;98380.45;105319;1322;22647;-76
2021/12/27 04:01:15;;;;;;;176.30;57.50;;;;;;;-9.62;71.87;98383.11;105039;1325;25500;-76
2021/12/27 04:03:48;;;;;;;99.00;35.90;;;;;;;-9.63;72.09;98382.08;105098;1325;25485;-75
2021/12/27 04:06:17;;;;;;;61.00;21.10;;;;;;;-9.66;71.90;98385.76;105062;1325;22612;-76
2021/12/27 04:08:45;;;;;;;56.80;21.60;;;;;;;-9.68;71.89;98385.41;105053;1325;22669;-76
2021/12/27 04:11:13;;;;;;;57.00;21.20;;;;;;;-9.69;71.66;98382.03;105075;1325;22636;-76
2021/12/27 04:13:40;;;;;;;53.90;20.50;;;;;;;-9.68;71.67;98380.36;105110;1325;22868;-77
2021/12/27 04:16:07;;;;;;;74.00;26.90;;;;;;;-9.70;71.85;98379.16;105055;1325;22631;-77
2021/12/27 04:18:34;;;;;;;81.40;30.30;;;;;;;-9.72;71.82;98384.02;105039;1325;22651;-76
2021/12/27 04:21:02;;;;;;;56.70;22.70;;;;;;;-9.74;71.85;98388.02;105091;1325;24441;-76
2021/12/27 04:23:29;;;;;;;72.10;25.60;;;;;;;-9.72;71.74;98396.64;105076;1325;22730;-76
2021/12/27 04:25:56;;;;;;;82.30;32.90;;;;;;;-9.73;71.88;98409.61;105020;1325;22589;-76
2021/12/27 04:28:24;;;;;;;81.40;31.40;;;;;;;-9.74;71.90;98408.26;105059;1325;22612;-76
2021/12/27 04:30:51;;;;;;;89.10;30.30;;;;;;;-9.78;71.81;98403.50;105026;1325;22649;-76
2021/12/27 04:33:18;;;;;;;87.00;32.10;;;;;;;-9.79;71.96;98400.62;105065;1325;24390;-76
2021/12/27 04:35:45;;;;;;;87.60;32.70;;;;;;;-9.80;71.62;98400.27;105062;1325;22565;-76
2021/12/27 04:38:12;;;;;;;86.30;31.50;;;;;;;-9.81;71.93;98398.56;105141;1322;23059;-76
2021/12/27 04:40:42;;;;;;;80.60;31.70;;;;;;;-9.81;71.95;98402.61;105336;1322;22600;-76
2021/12/27 04:43:16;;;;;;;78.30;29.70;;;;;;;-9.81;71.88;98401.94;105355;1321;22594;-76
2021/12/27 04:45:44;;;;;;;74.40;27.30;;;;;;;-9.82;71.79;98401.08;105341;1321;22750;-76
2021/12/27 04:48:11;;;;;;;69.50;27.70;;;;;;;-9.84;71.80;98400.05;105385;1322;22612;-76
2021/12/27 04:50:38;;;;;;;73.30;26.20;;;;;;;-9.85;71.75;98398.70;105345;1322;22801;-76
2021/12/27 04:53:06;;;;;;;64.70;25.00;;;;;;;-9.88;71.60;98402.70;105299;1321;22593;-76
2021/12/27 04:55:37;;;;;;;57.70;23.10;;;;;;;-9.91;70.89;98403.83;105108;1321;304481;-76
2021/12/27 04:58:07;;;;;;;66.00;24.90;;;;;;;-9.97;70.95;98407.31;105320;1317;23425;-76
2021/12/27 05:00:35;;;;;;;123.20;47.30;;;;;;;-10.02;70.88;98406.73;105293;1322;25284;-77
2021/12/27 05:03:03;;;;;;;87.60;32.10;;;;;;;-10.08;70.69;98405.65;105321;1321;22739;-77
2021/12/27 05:05:31;;;;;;;96.40;36.40;;;;;;;-10.14;70.52;98405.23;105334;1322;22569;-76
2021/12/27 05:08:00;;;;;;;95.20;37.30;;;;;;;-10.19;70.29;98408.23;105322;1322;22638;-76
2021/12/27 05:10:29;;;;;;;99.40;37.60;;;;;;;-10.21;70.20;98411.24;105365;1322;25414;-75
2021/12/27 05:12:57;;;;;;;110.30;40.00;;;;;;;-10.23;70.53;98421.33;105327;1321;25468;-75
2021/12/27 05:15:24;;;;;;;95.70;34.40;;;;;;;-10.27;70.90;98424.13;105417;1322;22732;-75
2021/12/27 05:17:51;;;;;;;83.40;33.00;;;;;;;-10.29;71.26;98416.02;105329;1319;22917;-75
2021/12/27 05:20:18;;;;;;;89.60;32.60;;;;;;;-10.29;71.51;98406.42;105340;1320;24530;-75
2021/12/27 05:22:45;;;;;;;85.00;30.60;;;;;;;-10.30;71.79;98404.23;105335;1322;22569;-75
2021/12/27 05:25:16;;;;;;;74.40;27.20;;;;;;;-10.28;71.56;98403.56;105375;1322;22569;-75
2021/12/27 05:27:44;;;;;;;76.70;30.40;;;;;;;-10.26;71.94;98397.54;105415;1321;23403;-76
2021/12/27 05:30:12;;;;;;;94.90;35.80;;;;;;;-10.27;72.00;98392.13;105342;1321;22679;-75
2021/12/27 05:32:40;;;;;;;121.80;41.30;;;;;;;-10.23;72.35;98382.25;105684;1319;22655;-75
2021/12/27 05:35:09;;;;;;;175.50;50.10;;;;;;;-10.18;72.61;98378.43;105346;1320;22585;-74
2021/12/27 05:37:37;;;;;;;330.60;74.70;;;;;;;-10.12;72.81;98378.83;105361;1322;22608;-75
2021/12/27 05:40:07;;;;;;;192.20;50.80;;;;;;;-10.05;72.96;98383.48;105400;1319;25287;-74
2021/12/27 05:42:35;;;;;;;115.30;36.90;;;;;;;-9.97;73.15;98387.60;105408;1320;22606;-75
2021/12/27 05:45:04;;;;;;;94.20;34.00;;;;;;;-9.93;73.37;98387.64;105393;1321;22585;-75
2021/12/27 05:47:31;;;;;;;126.10;42.20;;;;;;;-9.90;73.39;98390.54;105367;1321;23987;-76
2021/12/27 05:49:58;;;;;;;123.00;40.80;;;;;;;-9.87;73.46;98385.03;105339;1322;24501;-76
2021/12/27 05:52:26;;;;;;;191.00;57.60;;;;;;;-9.84;73.69;98377.46;105375;1321;22574;-76
2021/12/27 05:54:53;;;;;;;105.60;34.70;;;;;;;-9.80;73.90;98377.19;105309;1321;22655;-75
2021/12/27 05:57:20;;;;;;;87.00;31.70;;;;;;;-9.77;73.91;98376.38;105343;1319;22683;-75
2021/12/27 05:59:47;;;;;;;74.50;31.40;;;;;;;-9.73;74.17;98374.89;105313;1321;22929;-75
2021/12/27 06:02:15;;;;;;;79.30;31.40;;;;;;;-9.70;74.33;98371.91;105436;1321;22725;-75
2021/12/27 06:04:42;;;;;;;119.40;42.80;;;;;;;-9.69;74.64;98375.29;105360;1321;22597;-75
2021/12/27 06:07:09;;;;;;;89.40;33.90;;;;;;;-9.65;74.40;98375.83;105365;1321;22621;-75
2021/12/27 06:09:36;;;;;;;111.80;41.20;;;;;;;-9.61;74.73;98369.47;105315;1319;22611;-75
2021/12/27 06:12:04;;;;;;;89.50;33.70;;;;;;;-9.58;74.82;98367.98;105319;1321;22585;-78
2021/12/27 06:14:31;;;;;;;88.80;31.10;;;;;;;-9.59;74.76;98363.77;105568;1322;23340;-77
2021/12/27 06:16:58;;;;;;;67.10;28.40;;;;;;;-9.57;74.98;98365.30;105546;1322;22608;-74
2021/12/27 06:19:25;;;;;;;75.60;33.30;;;;;;;-9.55;74.85;98365.98;105586;1320;22593;-75
2021/12/27 06:21:55;;;;;;;91.00;35.10;;;;;;;-9.56;75.09;98369.52;105583;1321;24234;-75
2021/12/27 06:24:22;;;;;;;72.90;28.10;;;;;;;-9.55;75.10;98368.51;105584;1322;22609;-78
2021/12/27 06:26:49;;;;;;;93.30;36.60;;;;;;;-9.53;74.84;98364.83;105587;1322;22933;-75
2021/12/27 06:29:16;;;;;;;86.40;30.20;;;;;;;-9.50;74.63;98363.50;105548;1320;24450;-75
2021/12/27 06:31:43;;;;;;;80.30;33.80;;;;;;;-9.51;74.93;98367.05;105353;1321;22589;-77
2021/12/27 06:34:10;;;;;;;70.20;26.90;;;;;;;-9.49;75.00;98370.94;105316;1321;25401;-77
2021/12/27 06:36:37;;;;;;;59.60;20.80;;;;;;;-9.44;74.82;98365.91;105322;1321;22725;-77
2021/12/27 06:39:04;;;;;;;27.00;13.30;;;;;;;-9.44;74.98;98362.55;105325;1320;22677;-75
2021/12/27 06:41:32;;;;;;;114.00;35.60;;;;;;;-9.45;75.08;98364.55;105318;1321;22618;-76
2021/12/27 06:43:59;;;;;;;115.30;34.40;;;;;;;-9.43;75.02;98368.30;105320;1320;24233;-77
2021/12/27 06:46:26;;;;;;;65.10;26.10;;;;;;;-9.41;74.96;98372.70;105342;1320;22664;-78
2021/12/27 06:48:53;;;;;;;57.80;21.50;;;;;;;-9.44;75.11;98378.91;105333;1319;23950;-78
2021/12/27 06:51:21;;;;;;;73.00;29.10;;;;;;;-9.48;75.26;98375.82;105327;1321;22588;-78
2021/12/27 06:53:48;;;;;;;96.80;30.90;;;;;;;-9.42;75.11;98374.89;105360;1321;25171;-77
2021/12/27 06:56:16;;;;;;;73.80;25.50;;;;;;;-9.44;75.37;98369.45;105347;1322;22595;-77
2021/12/27 06:58:43;;;;;;;90.20;32.00;;;;;;;-9.43;75.19;98366.44;105354;1322;22729;-77
2021/12/27 07:01:09;;;;;;;77.10;28.30;;;;;;;-9.47;75.18;98368.77;105346;1322;22597;-77
2021/12/27 07:03:36;;;;;;;61.70;25.60;;;;;;;-9.50;75.25;98370.26;105313;1321;22638;-77
2021/12/27 07:06:03;;;;;;;126.00;43.90;;;;;;;-9.51;75.52;98372.95;105320;1320;24380;-77
2021/12/27 07:08:31;;;;;;;85.20;31.50;;;;;;;-9.49;75.30;98373.64;105350;1320;22598;-77
2021/12/27 07:10:58;;;;;;;61.60;23.80;;;;;;;-9.50;75.18;98374.14;105335;1320;22678;-77
2021/12/27 07:13:25;;;;;;;133.10;45.50;;;;;;;-9.51;75.19;98368.89;105332;1321;24275;-77
2021/12/27 07:15:53;;;;;;;107.80;39.80;;;;;;;-9.50;75.32;98368.73;105340;1316;22611;-77
2021/12/27 07:18:23;;;;;;;76.90;26.00;;;;;;;-9.51;75.16;98373.11;105339;1321;22736;-77
2021/12/27 07:20:53;;;;;;;101.00;35.00;;;;;;;-9.52;75.30;98374.96;105328;1321;22642;-76
2021/12/27 07:23:21;;;;;;;102.10;35.40;;;;;;;-9.50;75.39;98375.66;105330;1321;26254;-77
2021/12/27 07:25:48;;;;;;;86.30;30.60;;;;;;;-9.46;75.34;98375.85;105333;1320;22759;-78
2021/12/27 07:28:16;;;;;;;76.20;28.00;;;;;;;-9.43;75.40;98372.84;105262;1321;25369;-76
2021/12/27 07:30:43;;;;;;;48.30;20.40;;;;;;;-9.39;75.12;98369.02;105341;1322;22588;-76
2021/12/27 07:33:10;;;;;;;79.50;28.60;;;;;;;-9.41;75.27;98368.48;105334;1321;22717;-75
2021/12/27 07:35:37;;;;;;;40.10;18.50;;;;;;;-9.43;75.09;98364.42;105345;1322;22721;-75
2021/12/27 07:38:05;;;;;;;64.30;24.40;;;;;;;-9.48;74.96;98368.25;105327;1320;22591;-75
2021/12/27 07:40:32;;;;;;;45.80;21.70;;;;;;;-9.55;75.19;98365.30;105305;1321;22597;-76
2021/12/27 07:42:59;;;;;;;59.30;23.40;;;;;;;-9.55;75.29;98369.02;105356;1315;22660;-76
2021/12/27 07:45:26;;;;;;;73.40;25.50;;;;;;;-9.61;75.54;98363.73;105361;1321;22673;-73
2021/12/27 07:47:53;;;;;;;61.80;24.50;;;;;;;-9.58;75.30;98363.59;105318;1321;22899;-74
2021/12/27 07:50:20;;;;;;;57.20;22.00;;;;;;;-9.59;75.38;98363.76;105343;1321;22571;-74
2021/12/27 07:52:47;;;;;;;57.20;23.20;;;;;;;-9.58;75.41;98366.64;105333;1322;22585;-76
2021/12/27 07:55:14;;;;;;;68.20;28.00;;;;;;;-9.56;75.25;98366.64;105295;1321;22590;-80
2021/12/27 07:57:41;;;;;;;78.10;29.70;;;;;;;-9.51;75.17;98362.33;105329;1322;25403;-80
2021/12/27 08:00:09;;;;;;;65.00;24.50;;;;;;;-9.45;75.20;98357.47;105297;1321;22572;-77
2021/12/27 08:02:38;;;;;;;93.70;34.20;;;;;;;-9.41;75.36;98357.52;105307;1321;22569;-75
2021/12/27 08:05:05;;;;;;;61.10;22.00;;;;;;;-9.38;75.57;98355.52;105360;1321;22622;-75
2021/12/27 08:07:32;;;;;;;88.40;33.60;;;;;;;-9.37;75.38;98353.51;105389;1321;22753;-75
2021/12/27 08:09:59;;;;;;;88.20;32.30;;;;;;;-9.31;75.11;98353.56;105367;1321;22650;-74
2021/12/27 08:12:26;;;;;;;97.90;35.20;;;;;;;-9.27;75.04;98351.08;105321;1320;22596;-74
2021/12/27 08:14:53;;;;;;;106.60;36.70;;;;;;;-9.30;75.36;98350.02;105334;1321;22619;-75
2021/12/27 08:17:21;;;;;;;85.10;33.40;;;;;;;-9.25;74.93;98347.20;105301;1321;26122;-76
2021/12/27 08:19:48;;;;;;;74.40;30.50;;;;;;;-9.19;75.14;98344.73;105289;1321;22603;-75
2021/12/27 08:22:16;;;;;;;78.50;31.00;;;;;;;-9.18;75.36;98347.44;105634;1321;26546;-80
2021/12/27 08:24:43;;;;;;;65.90;23.70;;;;;;;-9.13;75.18;98348.16;105376;1321;22627;-74
2021/12/27 08:27:11;;;;;;;45.70;18.00;;;;;;;-9.06;74.98;98352.26;105536;1321;22636;-73
2021/12/27 08:29:37;;;;;;;81.20;28.50;;;;;;;-9.05;75.14;98350.75;105424;1321;22568;-75
2021/12/27 08:32:05;;;;;;;69.80;25.50;;;;;;;-8.98;75.10;98355.02;105473;1316;22590;-74
2021/12/27 08:34:32;;;;;;;81.40;31.70;;;;;;;-8.94;75.05;98347.63;105453;1321;22610;-76
2021/12/27 08:36:59;;;;;;;144.40;51.30;;;;;;;-8.93;75.06;98345.60;105487;1320;22599;-74
2021/12/27 08:39:26;;;;;;;82.30;31.00;;;;;;;-8.89;74.55;98346.14;105514;1320;24277;-74
2021/12/27 08:41:54;;;;;;;72.60;27.90;;;;;;;-8.88;74.99;98342.11;105516;1322;22582;-74
2021/12/27 08:44:21;;;;;;;85.30;31.80;;;;;;;-8.85;74.80;98343.46;105552;1321;22611;-73
2021/12/27 08:46:48;;;;;;;55.50;21.30;;;;;;;-8.86;74.98;98342.63;105594;1321;22577;-76
2021/12/27 08:49:15;;;;;;;68.40;27.70;;;;;;;-8.83;74.81;98340.79;105586;1319;22580;-75
2021/12/27 08:51:42;;;;;;;78.40;27.10;;;;;;;-8.81;74.87;98344.52;105547;1320;22655;-74
2021/12/27 08:54:10;;;;;;;62.60;24.90;;;;;;;-8.70;74.48;98344.92;105612;1322;24312;-76
2021/12/27 08:56:38;;;;;;;92.30;31.10;;;;;;;-8.65;74.63;98350.68;105590;1321;22733;-79
2021/12/27 08:59:05;;;;;;;66.80;25.00;;;;;;;-8.64;74.51;98353.91;105597;1321;22611;-77
2021/12/27 09:01:32;;;;;;;59.00;20.90;;;;;;;-8.63;74.60;98357.29;105644;1322;22581;-76
2021/12/27 09:03:59;;;;;;;43.20;17.70;;;;;;;-8.64;74.46;98354.41;105641;1321;24445;-76
2021/12/27 09:06:26;;;;;;;64.80;26.90;;;;;;;-8.61;74.55;98352.25;105630;1321;22577;-76
2021/12/27 09:08:53;;;;;;;109.40;38.20;;;;;;;-8.64;74.41;98351.21;105642;1320;22580;-74
2021/12/27 09:11:20;;;;;;;78.40;27.10;;;;;;;-8.63;74.20;98350.02;105660;1321;22685;-75
2021/12/27 09:13:47;;;;;;;276.90;84.90;;;;;;;-8.61;74.43;98350.73;105627;1321;22768;-76
2021/12/27 09:16:14;;;;;;;103.40;34.00;;;;;;;-8.59;74.69;98347.52;105584;1319;25402;-78
2021/12/27 09:18:41;;;;;;;86.70;28.90;;;;;;;-8.56;74.29;98341.96;105597;1321;22672;-75
2021/12/27 09:21:09;;;;;;;70.00;26.00;;;;;;;-8.54;74.32;98338.77;105585;1321;22596;-76
2021/12/27 09:23:36;;;;;;;80.30;31.20;;;;;;;-8.51;74.28;98340.30;105585;1322;22676;-78
2021/12/27 09:26:03;;;;;;;55.20;25.10;;;;;;;-8.49;74.12;98337.27;105567;1320;22597;-76
2021/12/27 09:28:30;;;;;;;64.30;26.20;;;;;;;-8.50;74.41;98335.25;105594;1320;22585;-76
2021/12/27 09:30:59;;;;;;;61.00;26.30;;;;;;;-8.46;74.08;98332.06;105587;1319;22619;-75
2021/12/27 09:33:26;;;;;;;72.70;29.50;;;;;;;-8.42;73.97;98324.32;105589;1321;22591;-76
2021/12/27 09:35:53;;;;;;;84.80;33.40;;;;;;;-8.41;74.48;98324.48;105554;1314;22726;-77
2021/12/27 09:38:20;;;;;;;81.40;35.40;;;;;;;-8.38;74.40;98320.95;105481;1320;22588;-77
2021/12/27 09:40:47;;;;;;;53.00;23.80;;;;;;;-8.35;73.97;98318.95;105584;1321;22584;-76
2021/12/27 09:43:15;;;;;;;61.50;27.20;;;;;;;-8.34;74.01;98316.08;105587;1321;22564;-76
2021/12/27 09:45:42;;;;;;;59.40;25.20;;;;;;;-8.41;73.77;98317.05;105605;1321;22601;-77
2021/12/27 09:48:09;;;;;;;68.10;28.00;;;;;;;-8.44;74.64;98317.89;105615;1321;22697;-77
2021/12/27 09:50:38;;;;;;;99.40;31.70;;;;;;;-8.45;74.38;98314.34;105579;1313;22666;-77
2021/12/27 09:53:05;;;;;;;102.40;36.40;;;;;;;-8.43;74.33;98314.70;105569;1321;22601;-77
2021/12/27 09:55:32;;;;;;;101.70;36.00;;;;;;;-8.38;74.20;98309.81;105559;1316;22745;-75
2021/12/27 09:58:00;;;;;;;103.00;36.40;;;;;;;-8.35;74.37;98309.66;105568;1321;24458;-83
2021/12/27 10:00:27;;;;;;;95.00;36.30;;;;;;;-8.27;74.54;98305.77;105508;1322;22589;-74
2021/12/27 10:02:57;;;;;;;72.70;27.70;;;;;;;-8.18;74.52;98306.65;105603;1321;22673;-70
2021/12/27 10:05:27;;;;;;;66.70;27.30;;;;;;;-8.14;74.00;98305.99;105609;1321;22589;-70
2021/12/27 10:07:55;;;;;;;91.80;36.80;;;;;;;-8.12;74.37;98300.42;105590;1321;24139;-70
2021/12/27 10:10:22;;;;;;;115.40;43.80;;;;;;;-8.05;74.62;98298.08;105591;1322;22586;-71
2021/12/27 10:12:50;;;;;;;103.30;38.70;;;;;;;-8.00;74.38;98299.79;105567;1321;22626;-71
2021/12/27 10:15:19;;;;;;;154.20;56.50;;;;;;;-7.95;74.22;98300.63;105577;1322;22623;-71
2021/12/27 10:17:48;;;;;;;99.40;39.80;;;;;;;-7.89;74.58;98300.32;105598;1321;22592;-70
2021/12/27 10:20:24;;;;;;;81.10;35.00;;;;;;;-7.86;74.10;98293.74;105584;1321;22640;-71
2021/12/27 10:22:54;;;;;;;111.00;42.90;;;;;;;-7.81;74.59;98288.85;105599;1320;22646;-71
2021/12/27 10:25:24;;;;;;;145.20;52.00;;;;;;;-7.72;74.41;98285.98;105574;1321;22561;-71
2021/12/27 10:27:53;;;;;;;127.10;48.40;;;;;;;-7.72;74.28;98281.08;105591;1321;22606;-73
2021/12/27 10:30:24;;;;;;;103.70;43.90;;;;;;;-7.71;74.52;98277.35;105652;1321;22568;-72
2021/12/27 10:33:24;;;;;;;139.90;58.50;;;;;;;-7.68;74.48;98279.05;105464;1322;22592;-74
2021/12/27 10:35:55;;;;;;;71.20;28.70;;;;;;;-7.56;74.19;98276.89;105210;1321;22621;-76
2021/12/27 10:38:24;;;;;;;105.10;46.80;;;;;;;-7.54;74.04;98278.41;105265;1321;22713;-71
2021/12/27 10:41:03;;;;;;;82.90;31.50;;;;;;;-7.52;74.26;98273.34;105372;1321;22588;-75
2021/12/27 10:43:41;;;;;;;92.20;33.80;;;;;;;-7.53;74.10;98276.04;105356;1321;23338;-72
2021/12/27 10:46:14;;;;;;;90.60;41.60;;;;;;;-7.48;74.45;98278.40;105334;1319;25455;-73
2021/12/27 10:48:59;;;;;;;105.80;47.50;;;;;;;-7.42;74.63;98273.16;105325;1321;22666;-71
2021/12/27 10:51:28;;;;;;;82.10;35.10;;;;;;;-7.31;74.34;98264.87;105324;1318;22593;-74
2021/12/27 10:53:59;;;;;;;265.40;91.00;;;;;;;-7.27;74.48;98263.02;105608;1319;22603;-73
2021/12/27 10:56:47;;;;;;;241.70;76.60;;;;;;;-7.24;74.16;98264.86;105578;1321;22592;-71
2021/12/27 10:59:20;;;;;;;141.90;46.60;;;;;;;-7.24;74.07;98257.77;105565;1321;22630;-73
2021/12/27 11:01:48;;;;;;;140.00;48.90;;;;;;;-7.25;73.56;98251.69;105592;1313;22581;-72
2021/12/27 11:04:18;;;;;;;85.40;32.60;;;;;;;-7.33;73.05;98252.86;105486;1322;22661;-70
2021/12/27 11:06:45;;;;;;;78.40;33.40;;;;;;;-7.42;73.14;98253.55;105581;1321;22670;-72
2021/12/27 11:09:14;;;;;;;82.00;31.80;;;;;;;-7.51;73.02;98247.29;105592;1321;22638;-71
2021/12/27 11:11:42;;;;;;;88.50;36.00;;;;;;;-7.57;73.28;98241.02;105601;1316;22584;-74
2021/12/27 11:14:09;;;;;;;109.80;43.60;;;;;;;-7.60;73.34;98241.01;105613;1322;22749;-74
2021/12/27 11:16:36;;;;;;;84.50;34.70;;;;;;;-7.60;73.22;98238.48;105592;1320;22652;-72
2021/12/27 11:19:03;;;;;;;72.90;29.10;;;;;;;-7.58;73.68;98240.00;105572;1322;22590;-72